sensor_id;sensor_type;location;lat;lon;timestamp;pressure;altitude;pressure_sealevel;temperature;humidity
36748;BME280;22716;51.556;5.080;2024-01-16T00:00:29;100261.59;;;0.90;100.00
36748;BME280;22716;51.556;5.080;2024-01-16T00:02:58;100269.25;;;0.87;100.00
36748;BME280;22716;51.556;5.080;2024-01-16T00:05:29;100270.03;;;0.83;100.00
36748;BME280;22716;51.556;5.080;2024-01-16T00:07:58;100272.53;;;0.80;100.00
36748;BME280;22716;51.556;5.080;2024-01-16T00:10:27;100264.84;;;0.81;100.00
36748;BME280;22716;51.556;5.080;2024-01-16T00:12:55;100257.00;;;0.75;100.00
36748;BME280;22716;51.556;5.080;2024-01-16T00:15:24;100277.63;;;0.75;100.00
36748;BME280;22716;51.556;5.080;2024-01-16T00:17:52;100277.69;;;0.78;100.00
36748;BME280;22716;51.556;5.080;2024-01-16T00:20:21;100276.06;;;0.83;100.00
36748;BME280;22716;51.556;5.080;2024-01-16T00:22:54;100279.53;;;0.84;100.00
36748;BME280;22716;51.556;5.080;2024-01-16T00:25:22;100289.78;;;0.82;100.00
36748;BME280;22716;51.556;5.080;2024-01-16T00:27:51;100288.97;;;0.83;100.00
36748;BME280;22716;51.556;5.080;2024-01-16T00:30:20;100289.03;;;0.86;100.00
36748;BME280;22716;51.556;5.080;2024-01-16T00:32:48;100269.13;;;0.81;100.00
36748;BME280;22716;51.556;5.080;2024-01-16T00:35:17;100277.88;;;0.89;100.00
36748;BME280;22716;51.556;5.080;2024-01-16T00:37:46;100277.00;;;0.87;100.00
36748;BME280;22716;51.556;5.080;2024-01-16T00:40:17;100271.78;;;0.85;100.00
36748;BME280;22716;51.556;5.080;2024-01-16T00:42:45;100271.78;;;0.85;100.00
36748;BME280;22716;51.556;5.080;2024-01-16T00:45:14;100276.13;;;0.85;100.00
36748;BME280;22716;51.556;5.080;2024-01-16T00:47:43;100291.59;;;0.86;100.00
36748;BME280;22716;51.556;5.080;2024-01-16T00:50:11;100293.28;;;0.84;100.00
36748;BME280;22716;51.556;5.080;2024-01-16T00:52:37;100289.03;;;0.86;100.00
36748;BME280;22716;51.556;5.080;2024-01-16T00:55:06;100292.44;;;0.85;100.00
36748;BME280;22716;51.556;5.080;2024-01-16T00:57:37;100281.09;;;0.77;100.00
36748;BME280;22716;51.556;5.080;2024-01-16T01:00:07;100295.00;;;0.84;100.00
36748;BME280;22716;51.556;5.080;2024-01-16T01:02:37;100295.81;;;0.81;100.00
36748;BME280;22716;51.556;5.080;2024-01-16T01:05:07;100295.88;;;0.84;100.00
36748;BME280;22716;51.556;5.080;2024-01-16T01:07:36;100289.78;;;0.81;100.00
36748;BME280;22716;51.556;5.080;2024-01-16T01:10:05;100287.19;;;0.81;100.00
36748;BME280;22716;51.556;5.080;2024-01-16T01:12:37;100292.44;;;0.85;100.00
36748;BME280;22716;51.556;5.080;2024-01-16T01:15:06;100282.94;;;0.83;100.00
36748;BME280;22716;51.556;5.080;2024-01-16T01:17:35;100280.41;;;0.84;100.00
36748;BME280;22716;51.556;5.080;2024-01-16T01:20:06;100284.72;;;0.87;100.00
36748;BME280;22716;51.556;5.080;2024-01-16T01:22:36;100282.09;;;0.84;100.00
36748;BME280;22716;51.556;5.080;2024-01-16T01:25:07;100268.25;;;0.80;100.00
36748;BME280;22716;51.556;5.080;2024-01-16T01:27:38;100289.09;;;0.89;100.00
36748;BME280;22716;51.556;5.080;2024-01-16T01:30:08;100281.34;;;0.89;100.00
36748;BME280;22716;51.556;5.080;2024-01-16T01:32:38;100290.91;;;0.95;100.00
36748;BME280;22716;51.556;5.080;2024-01-16T01:35:07;100284.84;;;0.93;100.00
36748;BME280;22716;51.556;5.080;2024-01-16T01:37:37;100305.44;;;0.91;100.00
36748;BME280;22716;51.556;5.080;2024-01-16T01:40:07;100312.41;;;0.94;100.00
36748;BME280;22716;51.556;5.080;2024-01-16T01:42:40;100313.94;;;0.86;100.00
36748;BME280;22716;51.556;5.080;2024-01-16T01:45:10;100318.13;;;0.81;100.00
36748;BME280;22716;51.556;5.080;2024-01-16T01:47:39;100316.44;;;0.81;100.00
36748;BME280;22716;51.556;5.080;2024-01-16T01:50:09;100310.41;;;0.82;100.00
36748;BME280;22716;51.556;5.080;2024-01-16T01:52:39;100322.41;;;0.80;100.00
36748;BME280;22716;51.556;5.080;2024-01-16T01:55:11;100312.97;;;0.81;100.00
36748;BME280;22716;51.556;5.080;2024-01-16T01:57:43;100299.19;;;0.79;100.00
36748;BME280;22716;51.556;5.080;2024-01-16T02:00:13;100308.84;;;0.89;100.00
36748;BME280;22716;51.556;5.080;2024-01-16T02:02:43;100299.50;;;0.94;100.00
36748;BME280;22716;51.556;5.080;2024-01-16T02:05:12;100295.22;;;0.96;100.00
36748;BME280;22716;51.556;5.080;2024-01-16T02:07:41;100297.75;;;0.93;100.00
36748;BME280;22716;51.556;5.080;2024-01-16T02:10:10;100301.22;;;0.93;100.00
36748;BME280;22716;51.556;5.080;2024-01-16T02:12:39;100309.84;;;0.95;100.00
36748;BME280;22716;51.556;5.080;2024-01-16T02:15:11;100302.97;;;0.96;100.00
36748;BME280;22716;51.556;5.080;2024-01-16T02:17:40;100290.78;;;0.89;100.00
36748;BME280;22716;51.556;5.080;2024-01-16T02:20:09;100299.41;;;0.89;100.00
36748;BME280;22716;51.556;5.080;2024-01-16T02:22:39;100293.25;;;0.83;100.00
36748;BME280;22716;51.556;5.080;2024-01-16T02:25:13;100295.81;;;0.81;100.00
36748;BME280;22716;51.556;5.080;2024-01-16T02:27:41;100294.13;;;0.83;100.00
36748;BME280;22716;51.556;5.080;2024-01-16T02:30:11;100292.47;;;0.87;100.00
36748;BME280;22716;51.556;5.080;2024-01-16T02:32:39;100288.94;;;0.82;100.00
36748;BME280;22716;51.556;5.080;2024-01-16T02:35:08;100291.59;;;0.86;100.00
36748;BME280;22716;51.556;5.080;2024-01-16T02:37:37;100286.44;;;0.85;100.00
36748;BME280;22716;51.556;5.080;2024-01-16T02:40:07;100289.84;;;0.85;100.00
36748;BME280;22716;51.556;5.080;2024-01-16T02:42:39;100291.66;;;0.88;100.00
36748;BME280;22716;51.556;5.080;2024-01-16T02:45:08;100299.41;;;0.89;100.00
36748;BME280;22716;51.556;5.080;2024-01-16T02:47:37;100295.94;;;0.89;100.00
36748;BME280;22716;51.556;5.080;2024-01-16T02:50:07;100289.06;;;0.88;100.00
36748;BME280;22716;51.556;5.080;2024-01-16T02:52:36;100288.19;;;0.89;100.00
36748;BME280;22716;51.556;5.080;2024-01-16T02:55:06;100288.13;;;0.86;100.00
36748;BME280;22716;51.556;5.080;2024-01-16T02:57:35;100286.53;;;0.91;100.00
36748;BME280;22716;51.556;5.080;2024-01-16T03:00:08;100295.16;;;0.93;100.00
36748;BME280;22716;51.556;5.080;2024-01-16T03:02:36;100291.66;;;0.88;100.00
36748;BME280;22716;51.556;5.080;2024-01-16T03:05:06;100289.09;;;0.89;100.00
36748;BME280;22716;51.556;5.080;2024-01-16T03:07:34;100293.47;;;0.93;100.00
36748;BME280;22716;51.556;5.080;2024-01-16T03:10:04;100298.59;;;0.92;100.00
36748;BME280;22716;51.556;5.080;2024-01-16T03:12:32;100295.13;;;0.90;100.00
36748;BME280;22716;51.556;5.080;2024-01-16T03:15:01;100298.53;;;0.89;100.00
36748;BME280;22716;51.556;5.080;2024-01-16T03:17:32;100300.28;;;0.90;100.00
36748;BME280;22716;51.556;5.080;2024-01-16T03:20:01;100299.44;;;0.91;100.00
36748;BME280;22716;51.556;5.080;2024-01-16T03:22:30;100297.69;;;0.90;100.00
36748;BME280;22716;51.556;5.080;2024-01-16T03:24:59;100295.13;;;0.91;100.00
36748;BME280;22716;51.556;5.080;2024-01-16T03:27:28;100298.47;;;0.86;100.00
36748;BME280;22716;51.556;5.080;2024-01-16T03:29:57;100306.19;;;0.84;100.00
36748;BME280;22716;51.556;5.080;2024-01-16T03:32:25;100286.38;;;0.82;100.00
36748;BME280;22716;51.556;5.080;2024-01-16T03:34:56;100292.47;;;0.87;100.00
36748;BME280;22716;51.556;5.080;2024-01-16T03:37:25;100288.09;;;0.83;100.00
36748;BME280;22716;51.556;5.080;2024-01-16T03:39:53;100282.91;;;0.81;100.00
36748;BME280;22716;51.556;5.080;2024-01-16T03:42:23;100283.81;;;0.83;100.00
36748;BME280;22716;51.556;5.080;2024-01-16T03:44:51;100283.75;;;0.80;100.00
36748;BME280;22716;51.556;5.080;2024-01-16T03:47:21;100283.66;;;0.76;100.00
36748;BME280;22716;51.556;5.080;2024-01-16T03:49:49;100268.97;;;0.72;100.00
36748;BME280;22716;51.556;5.080;2024-01-16T03:52:20;100274.94;;;0.69;100.00
36748;BME280;22716;51.556;5.080;2024-01-16T03:54:49;100262.75;;;0.62;100.00
36748;BME280;22716;51.556;5.080;2024-01-16T03:57:17;100267.97;;;0.65;100.00
36748;BME280;22716;51.556;5.080;2024-01-16T03:59:46;100267.91;;;0.62;100.00
36748;BME280;22716;51.556;5.080;2024-01-16T04:02:15;100261.91;;;0.62;100.00
36748;BME280;22716;51.556;5.080;2024-01-16T04:04:43;100257.63;;;0.64;100.00
36748;BME280;22716;51.556;5.080;2024-01-16T04:07:12;100268.00;;;0.67;100.00
36748;BME280;22716;51.556;5.080;2024-01-16T04:09:44;100261.16;;;0.67;100.00
36748;BME280;22716;51.556;5.080;2024-01-16T04:12:13;100256.69;;;0.59;100.00
36748;BME280;22716;51.556;5.080;2024-01-16T04:14:41;100248.91;;;0.57;100.00
36748;BME280;22716;51.556;5.080;2024-01-16T04:17:10;100256.63;;;0.57;100.00
36748;BME280;22716;51.556;5.080;2024-01-16T04:19:38;100262.59;;;0.54;100.00
36748;BME280;22716;51.556;5.080;2024-01-16T04:22:07;100246.19;;;0.51;100.00
36748;BME280;22716;51.556;5.080;2024-01-16T04:24:35;100244.44;;;0.48;100.00
36748;BME280;22716;51.556;5.080;2024-01-16T04:27:07;100243.53;;;0.46;100.00
36748;BME280;22716;51.556;5.080;2024-01-16T04:29:36;100258.25;;;0.52;100.00
36748;BME280;22716;51.556;5.080;2024-01-16T04:32:05;100247.00;;;0.48;100.00
36748;BME280;22716;51.556;5.080;2024-01-16T04:34:33;100242.75;;;0.50;100.00
36748;BME280;22716;51.556;5.080;2024-01-16T04:37:03;100241.94;;;0.53;100.00
36748;BME280;22716;51.556;5.080;2024-01-16T04:39:35;100243.66;;;0.52;100.00
36748;BME280;22716;51.556;5.080;2024-01-16T04:42:07;100243.63;;;0.51;100.00
36748;BME280;22716;51.556;5.080;2024-01-16T04:44:35;100247.91;;;0.50;100.00
36748;BME280;22716;51.556;5.080;2024-01-16T04:47:04;100238.38;;;0.46;100.00
36748;BME280;22716;51.556;5.080;2024-01-16T04:49:32;100252.16;;;0.47;100.00
36748;BME280;22716;51.556;5.080;2024-01-16T04:52:01;100240.16;;;0.49;100.00
36748;BME280;22716;51.556;5.080;2024-01-16T04:54:30;100250.47;;;0.49;100.00
36748;BME280;22716;51.556;5.080;2024-01-16T04:56:59;100253.00;;;0.47;100.00
36748;BME280;22716;51.556;5.080;2024-01-16T04:59:30;100244.44;;;0.48;100.00
36748;BME280;22716;51.556;5.080;2024-01-16T05:01:59;100239.16;;;0.42;100.00
36748;BME280;22716;51.556;5.080;2024-01-16T05:04:27;100242.66;;;0.46;100.00
36748;BME280;22716;51.556;5.080;2024-01-16T05:06:56;100239.19;;;0.44;100.00
36748;BME280;22716;51.556;5.080;2024-01-16T05:09:24;100241.72;;;0.42;100.00
36748;BME280;22716;51.556;5.080;2024-01-16T05:11:53;100234.81;;;0.40;100.00
36748;BME280;22716;51.556;5.080;2024-01-16T05:14:22;100234.94;;;0.46;100.00
36748;BME280;22716;51.556;5.080;2024-01-16T05:16:53;100223.59;;;0.38;100.00
36748;BME280;22716;51.556;5.080;2024-01-16T05:19:22;100221.94;;;0.41;100.00
36748;BME280;22716;51.556;5.080;2024-01-16T05:21:50;100221.09;;;0.41;100.00
36748;BME280;22716;51.556;5.080;2024-01-16T05:24:19;100217.56;;;0.37;100.00
36748;BME280;22716;51.556;5.080;2024-01-16T05:26:47;100217.66;;;0.42;100.00
36748;BME280;22716;51.556;5.080;2024-01-16T05:29:18;100217.63;;;0.40;100.00
36748;BME280;22716;51.556;5.080;2024-01-16T05:31:46;100219.41;;;0.43;100.00
36748;BME280;22716;51.556;5.080;2024-01-16T05:34:18;100215.00;;;0.37;100.00
36748;BME280;22716;51.556;5.080;2024-01-16T05:36:46;100203.69;;;0.31;100.00
36748;BME280;22716;51.556;5.080;2024-01-16T05:39:15;100202.75;;;0.26;100.00
36748;BME280;22716;51.556;5.080;2024-01-16T05:41:44;100216.56;;;0.29;100.00
36748;BME280;22716;51.556;5.080;2024-01-16T05:44:12;100217.34;;;0.27;100.00
36748;BME280;22716;51.556;5.080;2024-01-16T05:46:42;100208.75;;;0.26;100.00
36748;BME280;22716;51.556;5.080;2024-01-16T05:49:11;100214.75;;;0.25;100.00
36748;BME280;22716;51.556;5.080;2024-01-16T05:51:42;100212.13;;;0.24;100.00
36748;BME280;22716;51.556;5.080;2024-01-16T05:54:11;100211.22;;;0.20;100.00
36748;BME280;22716;51.556;5.080;2024-01-16T05:56:40;100208.47;;;0.13;100.00
36748;BME280;22716;51.556;5.080;2024-01-16T05:59:08;100198.16;;;0.13;100.00
36748;BME280;22716;51.556;5.080;2024-01-16T06:01:37;100195.44;;;0.05;100.00
36748;BME280;22716;51.556;5.080;2024-01-16T06:04:06;100202.28;;;0.06;100.00
36748;BME280;22716;51.556;5.080;2024-01-16T06:06:34;100203.09;;;0.02;100.00
36748;BME280;22716;51.556;5.080;2024-01-16T06:09:05;100197.94;;;0.02;100.00
36748;BME280;22716;51.556;5.080;2024-01-16T06:11:34;100196.09;;;-0.04;100.00
36748;BME280;22716;51.556;5.080;2024-01-16T06:14:03;100192.53;;;-0.09;100.00
36748;BME280;22716;51.556;5.080;2024-01-16T06:16:32;100192.53;;;-0.10;100.00
36748;BME280;22716;51.556;5.080;2024-01-16T06:19:01;100181.25;;;-0.15;100.00
36748;BME280;22716;51.556;5.080;2024-01-16T06:21:30;100202.00;;;-0.09;100.00
36748;BME280;22716;51.556;5.080;2024-01-16T06:23:59;100183.84;;;-0.14;100.00
36748;BME280;22716;51.556;5.080;2024-01-16T06:26:30;100195.97;;;-0.10;100.00
36748;BME280;22716;51.556;5.080;2024-01-16T06:28:59;100186.41;;;-0.15;100.00
36748;BME280;22716;51.556;5.080;2024-01-16T06:31:29;100192.41;;;-0.15;100.00
36748;BME280;22716;51.556;5.080;2024-01-16T06:33:57;100195.75;;;-0.19;100.00
36748;BME280;22716;51.556;5.080;2024-01-16T06:36:26;100194.00;;;-0.20;100.00
36748;BME280;22716;51.556;5.080;2024-01-16T06:38:54;100199.22;;;-0.18;100.00
36748;BME280;22716;51.556;5.080;2024-01-16T06:41:23;100203.38;;;-0.23;100.00
36748;BME280;22716;51.556;5.080;2024-01-16T06:43:54;100211.06;;;-0.25;100.00
36748;BME280;22716;51.556;5.080;2024-01-16T06:46:23;100202.47;;;-0.27;100.00
36748;BME280;22716;51.556;5.080;2024-01-16T06:48:51;100217.97;;;-0.24;100.00
36748;BME280;22716;51.556;5.080;2024-01-16T06:51:20;100209.38;;;-0.24;100.00
36748;BME280;22716;51.556;5.080;2024-01-16T06:53:48;100188.56;;;-0.33;100.00
36748;BME280;22716;51.556;5.080;2024-01-16T06:56:17;100205.88;;;-0.26;100.00
36748;BME280;22716;51.556;5.080;2024-01-16T06:58:43;100202.47;;;-0.27;100.00
36748;BME280;22716;51.556;5.080;2024-01-16T07:01:14;100208.38;;;-0.29;100.00
36748;BME280;22716;51.556;5.080;2024-01-16T07:03:42;100210.13;;;-0.28;100.00
36748;BME280;22716;51.556;5.080;2024-01-16T07:06:11;100195.47;;;-0.31;100.00
36748;BME280;22716;51.556;5.080;2024-01-16T07:08:40;100213.53;;;-0.29;100.00
36748;BME280;22716;51.556;5.080;2024-01-16T07:11:09;100223.88;;;-0.26;100.00
36748;BME280;22716;51.556;5.080;2024-01-16T07:13:39;100217.03;;;-0.27;100.00
36748;BME280;22716;51.556;5.080;2024-01-16T07:16:09;100221.25;;;-0.29;100.00
36748;BME280;22716;51.556;5.080;2024-01-16T07:18:43;100216.97;;;-0.30;100.00
36748;BME280;22716;51.556;5.080;2024-01-16T07:21:18;100229.78;;;-0.32;100.00
36748;BME280;22716;51.556;5.080;2024-01-16T07:23:47;100222.03;;;-0.33;100.00
36748;BME280;22716;51.556;5.080;2024-01-16T07:26:16;100222.84;;;-0.34;100.00
36748;BME280;22716;51.556;5.080;2024-01-16T07:28:45;100228.94;;;-0.32;100.00
36748;BME280;22716;51.556;5.080;2024-01-16T07:31:13;100216.88;;;-0.33;100.00
36748;BME280;22716;51.556;5.080;2024-01-16T07:33:45;100226.38;;;-0.31;100.00
36748;BME280;22716;51.556;5.080;2024-01-16T07:36:13;100220.34;;;-0.31;100.00
36748;BME280;22716;51.556;5.080;2024-01-16T07:38:42;100230.69;;;-0.30;100.00
36748;BME280;22716;51.556;5.080;2024-01-16T07:41:10;100228.94;;;-0.32;100.00
36748;BME280;22716;51.556;5.080;2024-01-16T07:43:39;100233.22;;;-0.31;100.00
36748;BME280;22716;51.556;5.080;2024-01-16T07:46:08;100231.53;;;-0.29;100.00
36748;BME280;22716;51.556;5.080;2024-01-16T07:48:36;100236.06;;;-0.21;100.00
36748;BME280;22716;51.556;5.080;2024-01-16T07:51:07;100245.41;;;-0.24;100.00
36748;BME280;22716;51.556;5.080;2024-01-16T07:53:36;100240.28;;;-0.24;100.00
36748;BME280;22716;51.556;5.080;2024-01-16T07:56:05;100245.38;;;-0.26;100.00
36748;BME280;22716;51.556;5.080;2024-01-16T07:58:34;100249.78;;;-0.20;100.00
36748;BME280;22716;51.556;5.080;2024-01-16T08:01:03;100244.63;;;-0.20;100.00
36748;BME280;22716;51.556;5.080;2024-01-16T08:03:32;100242.03;;;-0.22;100.00
36748;BME280;22716;51.556;5.080;2024-01-16T08:06:00;100243.78;;;-0.21;100.00
36748;BME280;22716;51.556;5.080;2024-01-16T08:08:32;100251.47;;;-0.22;100.00
36748;BME280;22716;51.556;5.080;2024-01-16T08:11:01;100242.78;;;-0.27;100.00
36748;BME280;22716;51.556;5.080;2024-01-16T08:13:29;100240.13;;;-0.30;100.00
36748;BME280;22716;51.556;5.080;2024-01-16T08:15:58;100241.88;;;-0.28;100.00
36748;BME280;22716;51.556;5.080;2024-01-16T08:18:27;100243.66;;;-0.25;100.00
36748;BME280;22716;51.556;5.080;2024-01-16T08:20:56;100250.59;;;-0.23;100.00
36748;BME280;22716;51.556;5.080;2024-01-16T08:23:25;100248.88;;;-0.22;100.00
36748;BME280;22716;51.556;5.080;2024-01-16T08:25:56;100256.69;;;-0.19;100.00
36748;BME280;22716;51.556;5.080;2024-01-16T08:28:26;100248.22;;;-0.15;100.00
36748;BME280;22716;51.556;5.080;2024-01-16T08:30:55;100252.50;;;-0.14;100.00
36748;BME280;22716;51.556;5.080;2024-01-16T08:33:24;100254.19;;;-0.15;100.00
36748;BME280;22716;51.556;5.080;2024-01-16T08:35:52;100241.38;;;-0.13;100.00
36748;BME280;22716;51.556;5.080;2024-01-16T08:38:21;100249.97;;;-0.13;100.00
36748;BME280;22716;51.556;5.080;2024-01-16T08:40:49;100253.44;;;-0.12;100.00
36748;BME280;22716;51.556;5.080;2024-01-16T08:43:21;100234.25;;;-0.25;100.00
36748;BME280;22716;51.556;5.080;2024-01-16T08:45:49;100254.19;;;-0.15;100.00
36748;BME280;22716;51.556;5.080;2024-01-16T08:48:18;100264.63;;;-0.09;100.00
36748;BME280;22716;51.556;5.080;2024-01-16T08:50:46;100263.81;;;-0.08;100.00
36748;BME280;22716;51.556;5.080;2024-01-16T08:53:15;100256.03;;;-0.11;100.00
36748;BME280;22716;51.556;5.080;2024-01-16T08:55:43;100257.78;;;-0.10;100.00
36748;BME280;22716;51.556;5.080;2024-01-16T08:58:12;100256.97;;;-0.07;100.00
36748;BME280;22716;51.556;5.080;2024-01-16T09:00:43;100259.69;;;-0.01;100.00
36748;BME280;22716;51.556;5.080;2024-01-16T09:03:12;100258.91;;;0.03;100.00
36748;BME280;22716;51.556;5.080;2024-01-16T09:05:42;100264.03;;;0.02;100.00
36748;BME280;22716;51.556;5.080;2024-01-16T09:08:10;100258.84;;;0.00;100.00
36748;BME280;22716;51.556;5.080;2024-01-16T09:10:39;100251.88;;;-0.04;100.00
36748;BME280;22716;51.556;5.080;2024-01-16T09:13:07;100249.31;;;-0.04;100.00
36748;BME280;22716;51.556;5.080;2024-01-16T09:15:37;100232.09;;;-0.07;100.00
36748;BME280;22716;51.556;5.080;2024-01-16T09:18:08;100234.94;;;0.06;100.00
36748;BME280;22716;51.556;5.080;2024-01-16T09:20:36;100241.06;;;0.11;100.00
36748;BME280;22716;51.556;5.080;2024-01-16T09:23:05;100242.00;;;0.14;100.00
36748;BME280;22716;51.556;5.080;2024-01-16T09:25:34;100231.44;;;0.04;100.00
36748;BME280;22716;51.556;5.080;2024-01-16T09:28:03;100238.56;;;0.15;100.00
36748;BME280;22716;51.556;5.080;2024-01-16T09:30:32;100241.28;;;0.21;100.00
36748;BME280;22716;51.556;5.080;2024-01-16T09:33:01;100243.09;;;0.25;100.00
36748;BME280;22716;51.556;5.080;2024-01-16T09:35:35;100242.28;;;0.28;100.00
36748;BME280;22716;51.556;5.080;2024-01-16T09:38:03;100245.78;;;0.31;100.00
36748;BME280;22716;51.556;5.080;2024-01-16T09:40:33;100208.38;;;0.08;100.00
36748;BME280;22716;51.556;5.080;2024-01-16T09:43:03;100244.91;;;0.31;100.00
36748;BME280;22716;51.556;5.080;2024-01-16T09:45:37;100244.16;;;0.35;100.00
36748;BME280;22716;51.556;5.080;2024-01-16T09:48:07;100247.69;;;0.40;100.00
36748;BME280;22716;51.556;5.080;2024-01-16T09:50:39;100240.91;;;0.45;100.00
36748;BME280;22716;51.556;5.080;2024-01-16T09:53:08;100243.59;;;0.49;100.00
36748;BME280;22716;51.556;5.080;2024-01-16T09:55:37;100247.94;;;0.52;100.00
36748;BME280;22716;51.556;5.080;2024-01-16T09:58:07;100234.19;;;0.53;100.00
36748;BME280;22716;51.556;5.080;2024-01-16T10:00:39;100246.44;;;0.62;100.00
36748;BME280;22716;51.556;5.080;2024-01-16T10:03:10;100244.88;;;0.70;100.00
36748;BME280;22716;51.556;5.080;2024-01-16T10:05:42;100234.56;;;0.70;100.00
36748;BME280;22716;51.556;5.080;2024-01-16T10:08:13;100236.38;;;0.77;100.00
36748;BME280;22716;51.556;5.080;2024-01-16T10:10:42;100232.97;;;0.78;100.00
36748;BME280;22716;51.556;5.080;2024-01-16T10:13:10;100244.22;;;0.81;100.00
36748;BME280;22716;51.556;5.080;2024-01-16T10:15:39;100243.44;;;0.85;100.00
36748;BME280;22716;51.556;5.080;2024-01-16T10:18:21;100233.16;;;0.87;100.00
36748;BME280;22716;51.556;5.080;2024-01-16T10:20:53;100218.56;;;0.89;100.00
36748;BME280;22716;51.556;5.080;2024-01-16T10:23:25;100216.84;;;0.88;100.00
36748;BME280;22716;51.556;5.080;2024-01-16T10:26:08;100219.31;;;0.83;100.00
36748;BME280;22716;51.556;5.080;2024-01-16T10:28:38;100217.63;;;0.85;100.00
36748;BME280;22716;51.556;5.080;2024-01-16T10:31:08;100214.28;;;0.88;100.00
36748;BME280;22716;51.556;5.080;2024-01-16T10:33:37;100218.56;;;0.87;100.00
36748;BME280;22716;51.556;5.080;2024-01-16T10:36:14;100217.63;;;0.84;100.00
36748;BME280;22716;51.556;5.080;2024-01-16T10:38:46;100213.22;;;0.78;100.00
36748;BME280;22716;51.556;5.080;2024-01-16T10:41:23;100227.09;;;0.85;100.00
36748;BME280;22716;51.556;5.080;2024-01-16T10:44:03;100228.94;;;0.90;100.00
36748;BME280;22716;51.556;5.080;2024-01-16T10:46:32;100213.44;;;0.90;100.00
36748;BME280;22716;51.556;5.080;2024-01-16T10:49:02;100198.84;;;0.91;100.00
36748;BME280;22716;51.556;5.080;2024-01-16T10:51:34;100199.75;;;0.94;100.00
36748;BME280;22716;51.556;5.080;2024-01-16T10:54:05;100193.00;;;1.01;100.00
36748;BME280;22716;51.556;5.080;2024-01-16T10:56:36;100196.50;;;1.04;100.00
36748;BME280;22716;51.556;5.080;2024-01-16T10:59:12;100188.03;;;1.11;100.00
36748;BME280;22716;51.556;5.080;2024-01-16T11:01:48;100185.47;;;1.13;100.00
36748;BME280;22716;51.556;5.080;2024-01-16T11:04:20;100195.00;;;1.17;100.00
36748;BME280;22716;51.556;5.080;2024-01-16T11:06:54;100170.78;;;1.09;100.00
36748;BME280;22716;51.556;5.080;2024-01-16T11:09:22;100194.31;;;1.27;100.00
36748;BME280;22716;51.556;5.080;2024-01-16T11:11:53;100182.34;;;1.32;100.00
36748;BME280;22716;51.556;5.080;2024-01-16T11:14:23;100186.72;;;1.36;100.00
36748;BME280;22716;51.556;5.080;2024-01-16T11:16:55;100173.03;;;1.40;100.00
36748;BME280;22716;51.556;5.080;2024-01-16T11:19:27;100182.53;;;1.44;100.00
36748;BME280;22716;51.556;5.080;2024-01-16T11:21:59;100176.63;;;1.51;100.00
36748;BME280;22716;51.556;5.080;2024-01-16T11:24:30;100175.84;;;1.57;100.00
36748;BME280;22716;51.556;5.080;2024-01-16T11:26:59;100175.13;;;1.65;100.00
36748;BME280;22716;51.556;5.080;2024-01-16T11:29:34;100178.59;;;1.67;100.00
36748;BME280;22716;51.556;5.080;2024-01-16T11:32:03;100177.94;;;1.81;100.00
36748;BME280;22716;51.556;5.080;2024-01-16T11:34:54;100186.69;;;1.92;100.00
36748;BME280;22716;51.556;5.080;2024-01-16T11:37:30;100176.31;;;1.87;100.00
36748;BME280;22716;51.556;5.080;2024-01-16T11:40:23;100178.19;;;2.00;100.00
36748;BME280;22716;51.556;5.080;2024-01-16T11:42:53;100180.84;;;2.06;100.00
36748;BME280;22716;51.556;5.080;2024-01-16T11:45:47;100184.47;;;2.20;100.00
36748;BME280;22716;51.556;5.080;2024-01-16T11:48:15;100176.88;;;2.31;100.00
36748;BME280;22716;51.556;5.080;2024-01-16T11:50:45;100174.28;;;2.31;100.00
36748;BME280;22716;51.556;5.080;2024-01-16T11:53:38;100168.34;;;2.40;100.00
36748;BME280;22716;51.556;5.080;2024-01-16T11:59:39;100175.47;;;2.59;100.00
36748;BME280;22716;51.556;5.080;2024-01-16T12:02:14;100151.28;;;2.52;100.00
36748;BME280;22716;51.556;5.080;2024-01-16T12:04:52;100162.63;;;2.68;100.00
36748;BME280;22716;51.556;5.080;2024-01-16T12:07:22;100160.13;;;2.77;100.00
36748;BME280;22716;51.556;5.080;2024-01-16T12:09:59;100164.59;;;2.92;100.00
36748;BME280;22716;51.556;5.080;2024-01-16T12:12:27;100151.75;;;3.01;100.00
36748;BME280;22716;51.556;5.080;2024-01-16T12:14:56;100144.09;;;3.14;100.00
36748;BME280;22716;51.556;5.080;2024-01-16T12:17:24;100138.00;;;3.05;100.00
36748;BME280;22716;51.556;5.080;2024-01-16T12:19:53;100138.88;;;3.10;100.00
36748;BME280;22716;51.556;5.080;2024-01-16T12:22:22;100138.16;;;3.29;100.00
36748;BME280;22716;51.556;5.080;2024-01-16T12:24:55;100139.13;;;3.40;100.00
36748;BME280;22716;51.556;5.080;2024-01-16T12:27:24;100132.31;;;3.54;100.00
36748;BME280;22716;51.556;5.080;2024-01-16T12:30:05;100137.50;;;3.57;100.00
36748;BME280;22716;51.556;5.080;2024-01-16T12:32:33;100140.06;;;3.51;100.00
36748;BME280;22716;51.556;5.080;2024-01-16T12:35:02;100136.66;;;3.55;100.00
36748;BME280;22716;51.556;5.080;2024-01-16T12:37:31;100132.28;;;3.48;100.00
36748;BME280;22716;51.556;5.080;2024-01-16T12:40:03;100123.44;;;3.19;100.00
36748;BME280;22716;51.556;5.080;2024-01-16T12:42:32;100123.34;;;3.10;100.00
36748;BME280;22716;51.556;5.080;2024-01-16T12:45:08;100134.53;;;3.06;100.00
36748;BME280;22716;51.556;5.080;2024-01-16T12:47:36;100131.94;;;3.06;100.00
36748;BME280;22716;51.556;5.080;2024-01-16T12:50:06;100125.88;;;2.99;100.00
36748;BME280;22716;51.556;5.080;2024-01-16T12:52:35;100120.47;;;2.76;100.00
36748;BME280;22716;51.556;5.080;2024-01-16T12:55:06;100110.03;;;2.67;100.00
36748;BME280;22716;51.556;5.080;2024-01-16T12:57:35;100104.81;;;2.64;100.00
36748;BME280;22716;51.556;5.080;2024-01-16T13:00:22;100108.31;;;2.66;100.00
36748;BME280;22716;51.556;5.080;2024-01-16T13:02:52;100099.59;;;2.55;100.00
36748;BME280;22716;51.556;5.080;2024-01-16T13:05:24;100110.78;;;2.54;100.00